sensor_id;sensor_type;location;lat;lon;timestamp;temperature;humidity
27667;DHT22;15074;50.940;5.282;2023-04-24T00:00:02;9.70;99.90
27667;DHT22;15074;50.940;5.282;2023-04-24T00:02:31;9.60;99.90
27667;DHT22;15074;50.940;5.282;2023-04-24T00:04:58;9.60;99.90
27667;DHT22;15074;50.940;5.282;2023-04-24T00:07:28;9.50;99.90
27667;DHT22;15074;50.940;5.282;2023-04-24T00:09:54;9.60;99.90
27667;DHT22;15074;50.940;5.282;2023-04-24T00:12:20;9.60;99.90
27667;DHT22;15074;50.940;5.282;2023-04-24T00:14:45;9.60;99.90
27667;DHT22;15074;50.940;5.282;2023-04-24T00:17:11;9.60;99.90
27667;DHT22;15074;50.940;5.282;2023-04-24T00:19:37;9.60;99.90
27667;DHT22;15074;50.940;5.282;2023-04-24T00:22:03;9.70;99.90
27667;DHT22;15074;50.940;5.282;2023-04-24T00:24:29;9.70;99.90
27667;DHT22;15074;50.940;5.282;2023-04-24T00:26:54;9.70;99.90
27667;DHT22;15074;50.940;5.282;2023-04-24T00:29:20;9.60;99.90
27667;DHT22;15074;50.940;5.282;2023-04-24T00:31:46;9.60;99.90
27667;DHT22;15074;50.940;5.282;2023-04-24T00:34:11;9.60;99.90
27667;DHT22;15074;50.940;5.282;2023-04-24T00:36:37;9.60;99.90
27667;DHT22;15074;50.940;5.282;2023-04-24T00:39:03;9.50;99.90
27667;DHT22;15074;50.940;5.282;2023-04-24T00:41:29;9.50;99.90
27667;DHT22;15074;50.940;5.282;2023-04-24T00:43:55;9.50;99.90
27667;DHT22;15074;50.940;5.282;2023-04-24T00:46:21;9.60;99.90
27667;DHT22;15074;50.940;5.282;2023-04-24T00:48:46;9.60;99.90
27667;DHT22;15074;50.940;5.282;2023-04-24T00:51:12;9.60;99.90
27667;DHT22;15074;50.940;5.282;2023-04-24T00:53:38;9.60;99.90
27667;DHT22;15074;50.940;5.282;2023-04-24T00:56:04;9.60;99.90
27667;DHT22;15074;50.940;5.282;2023-04-24T00:58:31;9.60;99.90
27667;DHT22;15074;50.940;5.282;2023-04-24T01:00:58;9.60;99.90
27667;DHT22;15074;50.940;5.282;2023-04-24T01:03:29;9.50;99.90
27667;DHT22;15074;50.940;5.282;2023-04-24T01:05:58;9.60;99.90
27667;DHT22;15074;50.940;5.282;2023-04-24T01:08:24;9.50;99.90
27667;DHT22;15074;50.940;5.282;2023-04-24T01:10:52;9.50;99.90
27667;DHT22;15074;50.940;5.282;2023-04-24T01:13:19;9.50;99.90
27667;DHT22;15074;50.940;5.282;2023-04-24T01:15:45;9.50;99.90
27667;DHT22;15074;50.940;5.282;2023-04-24T01:18:11;9.50;99.90
27667;DHT22;15074;50.940;5.282;2023-04-24T01:20:39;9.50;99.90
27667;DHT22;15074;50.940;5.282;2023-04-24T01:23:06;9.50;99.90
27667;DHT22;15074;50.940;5.282;2023-04-24T01:25:32;9.50;99.90
27667;DHT22;15074;50.940;5.282;2023-04-24T01:27:58;9.50;99.90
27667;DHT22;15074;50.940;5.282;2023-04-24T01:30:24;9.40;99.90
27667;DHT22;15074;50.940;5.282;2023-04-24T01:32:51;9.40;99.90
27667;DHT22;15074;50.940;5.282;2023-04-24T01:35:17;9.50;99.90
27667;DHT22;15074;50.940;5.282;2023-04-24T01:37:43;9.50;99.90
27667;DHT22;15074;50.940;5.282;2023-04-24T01:40:09;9.50;99.90
27667;DHT22;15074;50.940;5.282;2023-04-24T01:42:35;9.40;99.90
27667;DHT22;15074;50.940;5.282;2023-04-24T01:45:03;9.40;99.90
27667;DHT22;15074;50.940;5.282;2023-04-24T01:47:30;9.40;99.90
27667;DHT22;15074;50.940;5.282;2023-04-24T01:49:55;9.40;99.90
27667;DHT22;15074;50.940;5.282;2023-04-24T01:52:22;9.40;99.90
27667;DHT22;15074;50.940;5.282;2023-04-24T01:54:47;9.40;99.90
27667;DHT22;15074;50.940;5.282;2023-04-24T01:57:14;9.40;99.90
27667;DHT22;15074;50.940;5.282;2023-04-24T01:59:40;9.40;99.90
27667;DHT22;15074;50.940;5.282;2023-04-24T02:02:06;9.50;99.90
27667;DHT22;15074;50.940;5.282;2023-04-24T02:04:31;9.40;99.90
27667;DHT22;15074;50.940;5.282;2023-04-24T02:06:57;9.40;99.90
27667;DHT22;15074;50.940;5.282;2023-04-24T02:09:23;9.30;99.90
27667;DHT22;15074;50.940;5.282;2023-04-24T02:11:48;9.30;99.90
27667;DHT22;15074;50.940;5.282;2023-04-24T02:14:14;9.30;99.90
27667;DHT22;15074;50.940;5.282;2023-04-24T02:16:40;9.20;99.90
27667;DHT22;15074;50.940;5.282;2023-04-24T02:19:05;9.20;99.90
27667;DHT22;15074;50.940;5.282;2023-04-24T02:21:31;9.10;99.90
27667;DHT22;15074;50.940;5.282;2023-04-24T02:23:58;9.10;99.90
27667;DHT22;15074;50.940;5.282;2023-04-24T02:26:24;9.10;99.90
27667;DHT22;15074;50.940;5.282;2023-04-24T02:28:50;9.10;99.90
27667;DHT22;15074;50.940;5.282;2023-04-24T02:31:16;9.10;99.90
27667;DHT22;15074;50.940;5.282;2023-04-24T02:33:41;9.10;99.90
27667;DHT22;15074;50.940;5.282;2023-04-24T02:36:07;9.10;99.90
27667;DHT22;15074;50.940;5.282;2023-04-24T02:38:33;9.00;99.90
27667;DHT22;15074;50.940;5.282;2023-04-24T02:40:58;9.00;99.90
27667;DHT22;15074;50.940;5.282;2023-04-24T02:43:24;8.90;99.90
27667;DHT22;15074;50.940;5.282;2023-04-24T02:45:50;8.80;99.90
27667;DHT22;15074;50.940;5.282;2023-04-24T02:48:15;8.70;99.90
27667;DHT22;15074;50.940;5.282;2023-04-24T02:50:42;8.70;99.90
27667;DHT22;15074;50.940;5.282;2023-04-24T02:53:08;8.60;99.90
27667;DHT22;15074;50.940;5.282;2023-04-24T02:55:34;8.50;99.90
27667;DHT22;15074;50.940;5.282;2023-04-24T02:57:59;8.60;99.90
27667;DHT22;15074;50.940;5.282;2023-04-24T03:00:25;8.60;99.90
27667;DHT22;15074;50.940;5.282;2023-04-24T03:02:51;8.60;99.90
27667;DHT22;15074;50.940;5.282;2023-04-24T03:05:16;8.60;99.90
27667;DHT22;15074;50.940;5.282;2023-04-24T03:07:42;8.50;99.90
27667;DHT22;15074;50.940;5.282;2023-04-24T03:10:08;8.50;99.90
27667;DHT22;15074;50.940;5.282;2023-04-24T03:12:34;8.50;99.90
27667;DHT22;15074;50.940;5.282;2023-04-24T03:14:59;8.50;99.90
27667;DHT22;15074;50.940;5.282;2023-04-24T03:17:25;8.50;99.90
27667;DHT22;15074;50.940;5.282;2023-04-24T03:19:51;8.50;99.90
27667;DHT22;15074;50.940;5.282;2023-04-24T03:22:16;8.50;99.90
27667;DHT22;15074;50.940;5.282;2023-04-24T03:24:42;8.50;99.90
27667;DHT22;15074;50.940;5.282;2023-04-24T03:27:08;8.50;99.90
27667;DHT22;15074;50.940;5.282;2023-04-24T03:29:33;8.60;99.90
27667;DHT22;15074;50.940;5.282;2023-04-24T03:31:59;8.50;99.90
27667;DHT22;15074;50.940;5.282;2023-04-24T03:34:25;8.40;99.90
27667;DHT22;15074;50.940;5.282;2023-04-24T03:36:50;8.40;99.90
27667;DHT22;15074;50.940;5.282;2023-04-24T03:39:16;8.50;99.90
27667;DHT22;15074;50.940;5.282;2023-04-24T03:41:42;8.50;99.90
27667;DHT22;15074;50.940;5.282;2023-04-24T03:44:07;8.40;99.90
27667;DHT22;15074;50.940;5.282;2023-04-24T03:46:33;8.40;99.90
27667;DHT22;15074;50.940;5.282;2023-04-24T03:48:58;8.40;99.90
27667;DHT22;15074;50.940;5.282;2023-04-24T03:51:24;8.40;99.90
27667;DHT22;15074;50.940;5.282;2023-04-24T03:53:50;8.40;99.90
27667;DHT22;15074;50.940;5.282;2023-04-24T03:56:16;8.40;99.90
27667;DHT22;15074;50.940;5.282;2023-04-24T03:58:42;8.40;99.90
27667;DHT22;15074;50.940;5.282;2023-04-24T04:01:08;8.40;99.90
27667;DHT22;15074;50.940;5.282;2023-04-24T04:03:34;8.40;99.90
27667;DHT22;15074;50.940;5.282;2023-04-24T04:06:00;8.40;99.90
27667;DHT22;15074;50.940;5.282;2023-04-24T04:08:25;8.40;99.90
27667;DHT22;15074;50.940;5.282;2023-04-24T04:10:51;8.40;99.90
27667;DHT22;15074;50.940;5.282;2023-04-24T04:13:17;8.40;99.90
27667;DHT22;15074;50.940;5.282;2023-04-24T04:15:42;8.40;99.90
27667;DHT22;15074;50.940;5.282;2023-04-24T04:18:08;8.40;99.90
27667;DHT22;15074;50.940;5.282;2023-04-24T04:20:34;8.30;99.90
27667;DHT22;15074;50.940;5.282;2023-04-24T04:22:59;8.30;99.90
27667;DHT22;15074;50.940;5.282;2023-04-24T04:25:25;8.30;99.90
27667;DHT22;15074;50.940;5.282;2023-04-24T04:27:51;8.30;99.90
27667;DHT22;15074;50.940;5.282;2023-04-24T04:30:17;8.20;99.90
27667;DHT22;15074;50.940;5.282;2023-04-24T04:32:43;8.20;99.90
27667;DHT22;15074;50.940;5.282;2023-04-24T04:35:09;8.20;99.90
27667;DHT22;15074;50.940;5.282;2023-04-24T04:37:35;8.20;99.90
27667;DHT22;15074;50.940;5.282;2023-04-24T04:40:02;8.20;99.90
27667;DHT22;15074;50.940;5.282;2023-04-24T04:42:32;8.20;99.90
27667;DHT22;15074;50.940;5.282;2023-04-24T04:44:59;8.10;99.90
27667;DHT22;15074;50.940;5.282;2023-04-24T04:47:26;8.20;99.90
27667;DHT22;15074;50.940;5.282;2023-04-24T04:49:54;8.10;99.90
27667;DHT22;15074;50.940;5.282;2023-04-24T04:52:20;8.10;99.90
27667;DHT22;15074;50.940;5.282;2023-04-24T04:54:45;8.20;99.90
27667;DHT22;15074;50.940;5.282;2023-04-24T04:57:11;8.10;99.90
27667;DHT22;15074;50.940;5.282;2023-04-24T04:59:37;8.20;99.90
27667;DHT22;15074;50.940;5.282;2023-04-24T05:02:03;8.20;99.90
27667;DHT22;15074;50.940;5.282;2023-04-24T05:04:29;8.20;99.90
27667;DHT22;15074;50.940;5.282;2023-04-24T05:06:55;8.20;99.90
27667;DHT22;15074;50.940;5.282;2023-04-24T05:09:21;8.20;99.90
27667;DHT22;15074;50.940;5.282;2023-04-24T05:11:47;8.30;99.90
27667;DHT22;15074;50.940;5.282;2023-04-24T05:14:13;8.30;99.90
27667;DHT22;15074;50.940;5.282;2023-04-24T05:16:39;8.30;99.90
27667;DHT22;15074;50.940;5.282;2023-04-24T05:19:06;8.30;99.90
27667;DHT22;15074;50.940;5.282;2023-04-24T05:21:31;8.40;99.90
27667;DHT22;15074;50.940;5.282;2023-04-24T05:23:57;8.50;99.90
27667;DHT22;15074;50.940;5.282;2023-04-24T05:26:23;8.50;99.90
27667;DHT22;15074;50.940;5.282;2023-04-24T05:28:48;8.50;99.90
27667;DHT22;15074;50.940;5.282;2023-04-24T05:31:15;8.60;99.90
27667;DHT22;15074;50.940;5.282;2023-04-24T05:33:40;8.60;99.90
27667;DHT22;15074;50.940;5.282;2023-04-24T05:36:06;8.60;99.90
27667;DHT22;15074;50.940;5.282;2023-04-24T05:38:32;8.50;99.90
27667;DHT22;15074;50.940;5.282;2023-04-24T05:40:58;8.50;99.90
27667;DHT22;15074;50.940;5.282;2023-04-24T05:43:23;8.60;99.90
27667;DHT22;15074;50.940;5.282;2023-04-24T05:45:49;8.50;99.90
27667;DHT22;15074;50.940;5.282;2023-04-24T05:48:15;8.40;99.90
27667;DHT22;15074;50.940;5.282;2023-04-24T05:50:41;8.40;99.90
27667;DHT22;15074;50.940;5.282;2023-04-24T05:53:06;8.40;99.90
27667;DHT22;15074;50.940;5.282;2023-04-24T05:55:32;8.40;99.90
27667;DHT22;15074;50.940;5.282;2023-04-24T05:57:58;8.40;99.90
27667;DHT22;15074;50.940;5.282;2023-04-24T06:00:24;8.30;99.90
27667;DHT22;15074;50.940;5.282;2023-04-24T06:02:50;8.30;99.90
27667;DHT22;15074;50.940;5.282;2023-04-24T06:05:17;8.30;99.90
27667;DHT22;15074;50.940;5.282;2023-04-24T06:08:20;8.30;99.90
27667;DHT22;15074;50.940;5.282;2023-04-24T06:10:46;8.30;99.90
27667;DHT22;15074;50.940;5.282;2023-04-24T06:13:12;8.30;99.90
27667;DHT22;15074;50.940;5.282;2023-04-24T06:15:57;8.30;99.90
27667;DHT22;15074;50.940;5.282;2023-04-24T06:18:22;8.30;99.90
27667;DHT22;15074;50.940;5.282;2023-04-24T06:20:48;8.40;99.90
27667;DHT22;15074;50.940;5.282;2023-04-24T06:23:15;8.40;99.90
27667;DHT22;15074;50.940;5.282;2023-04-24T06:25:40;8.40;99.90
27667;DHT22;15074;50.940;5.282;2023-04-24T06:28:06;8.40;99.90
27667;DHT22;15074;50.940;5.282;2023-04-24T06:30:32;8.40;99.90
27667;DHT22;15074;50.940;5.282;2023-04-24T06:32:57;8.30;99.90
27667;DHT22;15074;50.940;5.282;2023-04-24T06:35:23;8.30;99.90
27667;DHT22;15074;50.940;5.282;2023-04-24T06:37:48;8.30;99.90
27667;DHT22;15074;50.940;5.282;2023-04-24T06:40:14;8.30;99.90
27667;DHT22;15074;50.940;5.282;2023-04-24T06:42:40;8.20;99.90
27667;DHT22;15074;50.940;5.282;2023-04-24T06:45:06;8.20;99.90
27667;DHT22;15074;50.940;5.282;2023-04-24T06:47:32;8.20;99.90
27667;DHT22;15074;50.940;5.282;2023-04-24T06:49:57;8.20;99.90
27667;DHT22;15074;50.940;5.282;2023-04-24T06:52:23;8.20;99.90
27667;DHT22;15074;50.940;5.282;2023-04-24T06:54:49;8.20;99.90
27667;DHT22;15074;50.940;5.282;2023-04-24T06:57:14;8.30;99.90
27667;DHT22;15074;50.940;5.282;2023-04-24T06:59:42;8.30;99.90
27667;DHT22;15074;50.940;5.282;2023-04-24T07:02:07;8.40;99.90
27667;DHT22;15074;50.940;5.282;2023-04-24T07:04:33;8.40;99.90
27667;DHT22;15074;50.940;5.282;2023-04-24T07:06:59;8.40;99.90
27667;DHT22;15074;50.940;5.282;2023-04-24T07:09:25;8.40;99.90
27667;DHT22;15074;50.940;5.282;2023-04-24T07:11:52;8.40;99.90
27667;DHT22;15074;50.940;5.282;2023-04-24T07:14:19;8.50;99.90
27667;DHT22;15074;50.940;5.282;2023-04-24T07:16:44;8.60;99.90
27667;DHT22;15074;50.940;5.282;2023-04-24T07:19:11;8.60;99.90
27667;DHT22;15074;50.940;5.282;2023-04-24T07:21:36;8.70;99.90
27667;DHT22;15074;50.940;5.282;2023-04-24T07:24:02;8.70;99.90
27667;DHT22;15074;50.940;5.282;2023-04-24T07:26:31;8.70;99.90
27667;DHT22;15074;50.940;5.282;2023-04-24T07:28:57;8.80;99.90
27667;DHT22;15074;50.940;5.282;2023-04-24T07:31:22;8.80;99.90
27667;DHT22;15074;50.940;5.282;2023-04-24T07:33:48;8.80;99.90
27667;DHT22;15074;50.940;5.282;2023-04-24T07:36:14;8.80;99.90
27667;DHT22;15074;50.940;5.282;2023-04-24T07:38:44;8.80;99.90
27667;DHT22;15074;50.940;5.282;2023-04-24T07:41:10;8.80;99.90
27667;DHT22;15074;50.940;5.282;2023-04-24T07:43:36;8.70;99.90
27667;DHT22;15074;50.940;5.282;2023-04-24T07:46:01;8.70;99.90
27667;DHT22;15074;50.940;5.282;2023-04-24T07:48:27;8.70;99.90
27667;DHT22;15074;50.940;5.282;2023-04-24T07:50:53;8.70;99.90
27667;DHT22;15074;50.940;5.282;2023-04-24T07:53:19;8.70;99.90
27667;DHT22;15074;50.940;5.282;2023-04-24T07:55:45;8.60;99.90
27667;DHT22;15074;50.940;5.282;2023-04-24T07:58:11;8.70;99.90
27667;DHT22;15074;50.940;5.282;2023-04-24T08:00:36;8.70;99.90
27667;DHT22;15074;50.940;5.282;2023-04-24T08:03:02;8.70;99.90
27667;DHT22;15074;50.940;5.282;2023-04-24T08:05:28;8.80;99.90
27667;DHT22;15074;50.940;5.282;2023-04-24T08:07:54;8.70;99.90
27667;DHT22;15074;50.940;5.282;2023-04-24T08:10:24;8.70;99.90
27667;DHT22;15074;50.940;5.282;2023-04-24T08:12:50;8.70;99.90
27667;DHT22;15074;50.940;5.282;2023-04-24T08:15:16;8.80;99.90
27667;DHT22;15074;50.940;5.282;2023-04-24T08:17:42;8.80;99.90
27667;DHT22;15074;50.940;5.282;2023-04-24T08:20:09;8.70;99.90
27667;DHT22;15074;50.940;5.282;2023-04-24T08:22:42;8.80;99.90
27667;DHT22;15074;50.940;5.282;2023-04-24T08:25:10;8.80;99.90
27667;DHT22;15074;50.940;5.282;2023-04-24T08:27:36;9.00;99.90
27667;DHT22;15074;50.940;5.282;2023-04-24T08:30:03;9.00;99.90
27667;DHT22;15074;50.940;5.282;2023-04-24T08:32:29;9.10;99.90
27667;DHT22;15074;50.940;5.282;2023-04-24T08:34:58;9.30;99.90
27667;DHT22;15074;50.940;5.282;2023-04-24T08:37:25;9.60;99.90
27667;DHT22;15074;50.940;5.282;2023-04-24T08:39:51;9.70;99.90
27667;DHT22;15074;50.940;5.282;2023-04-24T08:42:18;9.80;99.90
27667;DHT22;15074;50.940;5.282;2023-04-24T08:44:45;9.90;99.90
27667;DHT22;15074;50.940;5.282;2023-04-24T08:47:11;10.00;99.90
27667;DHT22;15074;50.940;5.282;2023-04-24T08:49:38;10.20;99.90
27667;DHT22;15074;50.940;5.282;2023-04-24T08:52:05;10.30;99.90
27667;DHT22;15074;50.940;5.282;2023-04-24T08:54:31;10.20;99.90
27667;DHT22;15074;50.940;5.282;2023-04-24T08:57:00;10.10;99.90
27667;DHT22;15074;50.940;5.282;2023-04-24T08:59:31;10.00;99.90
27667;DHT22;15074;50.940;5.282;2023-04-24T09:01:57;9.90;99.90
27667;DHT22;15074;50.940;5.282;2023-04-24T09:04:24;9.80;99.90
27667;DHT22;15074;50.940;5.282;2023-04-24T09:06:58;9.50;99.90
27667;DHT22;15074;50.940;5.282;2023-04-24T09:16:12;9.30;99.90
27667;DHT22;15074;50.940;5.282;2023-04-24T09:22:16;9.10;99.90
27667;DHT22;15074;50.940;5.282;2023-04-24T09:31:42;9.80;99.90
27667;DHT22;15074;50.940;5.282;2023-04-24T09:37:51;10.60;99.90
27667;DHT22;15074;50.940;5.282;2023-04-24T09:40:20;11.00;99.90
27667;DHT22;15074;50.940;5.282;2023-04-24T09:42:52;11.40;99.90
27667;DHT22;15074;50.940;5.282;2023-04-24T09:45:18;12.10;99.90
27667;DHT22;15074;50.940;5.282;2023-04-24T09:47:45;12.50;99.90
27667;DHT22;15074;50.940;5.282;2023-04-24T09:50:12;12.50;99.90
27667;DHT22;15074;50.940;5.282;2023-04-24T09:52:43;12.90;99.90
27667;DHT22;15074;50.940;5.282;2023-04-24T09:55:21;12.80;99.90
27667;DHT22;15074;50.940;5.282;2023-04-24T09:57:51;12.60;99.90
27667;DHT22;15074;50.940;5.282;2023-04-24T10:00:20;12.70;99.90
27667;DHT22;15074;50.940;5.282;2023-04-24T10:02:50;12.90;99.90
27667;DHT22;15074;50.940;5.282;2023-04-24T10:05:16;13.50;99.90
27667;DHT22;15074;50.940;5.282;2023-04-24T10:07:43;13.80;99.90
27667;DHT22;15074;50.940;5.282;2023-04-24T10:10:09;13.80;99.90
27667;DHT22;15074;50.940;5.282;2023-04-24T10:12:36;13.60;99.90
27667;DHT22;15074;50.940;5.282;2023-04-24T10:15:03;14.00;99.90
27667;DHT22;15074;50.940;5.282;2023-04-24T10:17:31;14.60;99.90
27667;DHT22;15074;50.940;5.282;2023-04-24T10:19:58;13.80;99.90
27667;DHT22;15074;50.940;5.282;2023-04-24T10:22:25;13.20;99.90
27667;DHT22;15074;50.940;5.282;2023-04-24T10:24:52;12.60;99.90
27667;DHT22;15074;50.940;5.282;2023-04-24T10:27:18;12.10;99.90
27667;DHT22;15074;50.940;5.282;2023-04-24T10:29:45;12.00;99.90
27667;DHT22;15074;50.940;5.282;2023-04-24T10:32:12;12.00;99.90
27667;DHT22;15074;50.940;5.282;2023-04-24T10:34:38;12.90;99.90
27667;DHT22;15074;50.940;5.282;2023-04-24T10:37:11;13.50;99.90
27667;DHT22;15074;50.940;5.282;2023-04-24T10:39:38;14.00;99.90
27667;DHT22;15074;50.940;5.282;2023-04-24T10:42:15;14.80;99.90
27667;DHT22;15074;50.940;5.282;2023-04-24T10:44:41;14.90;99.90
27667;DHT22;15074;50.940;5.282;2023-04-24T10:47:12;14.00;99.90
27667;DHT22;15074;50.940;5.282;2023-04-24T10:49:38;13.30;99.90
27667;DHT22;15074;50.940;5.282;2023-04-24T10:52:04;12.90;99.90
27667;DHT22;15074;50.940;5.282;2023-04-24T10:54:44;12.60;99.90
27667;DHT22;15074;50.940;5.282;2023-04-24T10:59:47;12.30;99.90
27667;DHT22;15074;50.940;5.282;2023-04-24T11:02:17;12.50;99.90
27667;DHT22;15074;50.940;5.282;2023-04-24T11:04:44;12.70;99.90
27667;DHT22;15074;50.940;5.282;2023-04-24T11:07:11;12.70;99.90
27667;DHT22;15074;50.940;5.282;2023-04-24T11:09:37;12.80;99.90
27667;DHT22;15074;50.940;5.282;2023-04-24T11:12:10;12.80;99.90
27667;DHT22;15074;50.940;5.282;2023-04-24T11:17:34;12.60;99.90
27667;DHT22;15074;50.940;5.282;2023-04-24T11:20:04;12.40;99.90
27667;DHT22;15074;50.940;5.282;2023-04-24T11:22:33;12.10;99.90
27667;DHT22;15074;50.940;5.282;2023-04-24T11:25:03;12.10;99.90
27667;DHT22;15074;50.940;5.282;2023-04-24T11:27:40;12.30;99.90
27667;DHT22;15074;50.940;5.282;2023-04-24T11:30:06;12.70;99.90
27667;DHT22;15074;50.940;5.282;2023-04-24T11:37:36;12.50;99.90
27667;DHT22;15074;50.940;5.282;2023-04-24T11:40:03;12.70;99.90
27667;DHT22;15074;50.940;5.282;2023-04-24T11:42:37;13.20;99.90
27667;DHT22;15074;50.940;5.282;2023-04-24T11:47:39;14.30;99.90
27667;DHT22;15074;50.940;5.282;2023-04-24T11:50:08;15.30;99.90
27667;DHT22;15074;50.940;5.282;2023-04-24T11:52:42;15.50;99.90
27667;DHT22;15074;50.940;5.282;2023-04-24T11:57:43;14.10;99.90
27667;DHT22;15074;50.940;5.282;2023-04-24T12:00:36;13.90;99.90
27667;DHT22;15074;50.940;5.282;2023-04-24T12:03:08;14.00;99.90
27667;DHT22;15074;50.940;5.282;2023-04-24T12:05:34;14.00;99.90
27667;DHT22;15074;50.940;5.282;2023-04-24T12:08:00;14.00;99.90
27667;DHT22;15074;50.940;5.282;2023-04-24T12:10:27;14.70;99.90
27667;DHT22;15074;50.940;5.282;2023-04-24T12:12:55;15.00;99.90
27667;DHT22;15074;50.940;5.282;2023-04-24T12:15:22;14.50;99.90
27667;DHT22;15074;50.940;5.282;2023-04-24T12:17:50;14.30;99.90
27667;DHT22;15074;50.940;5.282;2023-04-24T12:20:15;14.00;99.90
27667;DHT22;15074;50.940;5.282;2023-04-24T12:25:14;14.50;99.90
27667;DHT22;15074;50.940;5.282;2023-04-24T12:27:40;14.90;99.90
27667;DHT22;15074;50.940;5.282;2023-04-24T12:30:12;14.80;99.90
27667;DHT22;15074;50.940;5.282;2023-04-24T12:32:49;14.50;99.90
27667;DHT22;15074;50.940;5.282;2023-04-24T12:35:23;14.40;99.90
27667;DHT22;15074;50.940;5.282;2023-04-24T12:37:49;14.50;99.90
27667;DHT22;15074;50.940;5.282;2023-04-24T12:40:16;14.50;99.90
27667;DHT22;15074;50.940;5.282;2023-04-24T12:42:50;14.50;99.90
27667;DHT22;15074;50.940;5.282;2023-04-24T12:45:17;15.20;99.90
27667;DHT22;15074;50.940;5.282;2023-04-24T12:47:44;15.40;99.90
27667;DHT22;15074;50.940;5.282;2023-04-24T12:50:15;15.40;99.90
27667;DHT22;15074;50.940;5.282;2023-04-24T12:52:41;15.40;99.90
27667;DHT22;15074;50.940;5.282;2023-04-24T12:55:08;15.10;99.90
27667;DHT22;15074;50.940;5.282;2023-04-24T12:57:35;14.80;99.90
27667;DHT22;15074;50.940;5.282;2023-04-24T13:00:01;14.50;99.90
27667;DHT22;15074;50.940;5.282;2023-04-24T13:02:28;14.20;99.90
27667;DHT22;15074;50.940;5.282;2023-04-24T13:04:58;14.50;99.90
27667;DHT22;15074;50.940;5.282;2023-04-24T13:07:24;14.80;99.90
27667;DHT22;15074;50.940;5.282;2023-04-24T13:09:51;14.90;99.90
27667;DHT22;15074;50.940;5.282;2023-04-24T13:12:17;15.30;99.90
27667;DHT22;15074;50.940;5.282;2023-04-24T13:14:43;15.70;99.90
27667;DHT22;15074;50.940;5.282;2023-04-24T13:17:08;15.40;99.90
27667;DHT22;15074;50.940;5.282;2023-04-24T13:19:39;15.30;99.90
27667;DHT22;15074;50.940;5.282;2023-04-24T13:22:05;15.30;99.90
27667;DHT22;15074;50.940;5.282;2023-04-24T13:24:32;15.60;99.90
27667;DHT22;15074;50.940;5.282;2023-04-24T13:26:58;15.60;99.90
27667;DHT22;15074;50.940;5.282;2023-04-24T13:29:24;15.50;99.90
27667;DHT22;15074;50.940;5.282;2023-04-24T13:31:54;15.40;99.90
27667;DHT22;15074;50.940;5.282;2023-04-24T13:34:23;15.80;99.90
27667;DHT22;15074;50.940;5.282;2023-04-24T13:36:54;16.50;99.90
27667;DHT22;15074;50.940;5.282;2023-04-24T13:39:20;17.00;99.90
27667;DHT22;15074;50.940;5.282;2023-04-24T13:41:46;17.00;99.90
27667;DHT22;15074;50.940;5.282;2023-04-24T13:44:16;17.00;99.90
27667;DHT22;15074;50.940;5.282;2023-04-24T13:46:42;17.00;99.90
27667;DHT22;15074;50.940;5.282;2023-04-24T13:49:12;16.20;99.90
27667;DHT22;15074;50.940;5.282;2023-04-24T13:51:38;16.10;99.90
27667;DHT22;15074;50.940;5.282;2023-04-24T13:54:04;16.20;99.90
27667;DHT22;15074;50.940;5.282;2023-04-24T13:56:29;15.90;99.90
27667;DHT22;15074;50.940;5.282;2023-04-24T13:58:56;16.40;99.90
27667;DHT22;15074;50.940;5.282;2023-04-24T14:01:22;16.60;99.90
27667;DHT22;15074;50.940;5.282;2023-04-24T14:03:51;16.20;99.90
27667;DHT22;15074;50.940;5.282;2023-04-24T14:06:18;16.00;99.90
27667;DHT22;15074;50.940;5.282;2023-04-24T14:08:43;15.80;99.90
27667;DHT22;15074;50.940;5.282;2023-04-24T14:11:09;15.90;99.90
27667;DHT22;15074;50.940;5.282;2023-04-24T14:13:36;16.30;99.90
27667;DHT22;15074;50.940;5.282;2023-04-24T14:16:03;16.70;99.90
27667;DHT22;15074;50.940;5.282;2023-04-24T14:18:29;16.60;99.90
27667;DHT22;15074;50.940;5.282;2023-04-24T14:20:55;16.90;99.90
27667;DHT22;15074;50.940;5.282;2023-04-24T14:23:20;17.30;99.90
27667;DHT22;15074;50.940;5.282;2023-04-24T14:25:46;17.50;99.90
27667;DHT22;15074;50.940;5.282;2023-04-24T14:28:18;16.90;99.90
27667;DHT22;15074;50.940;5.282;2023-04-24T14:30:44;16.80;99.90
27667;DHT22;15074;50.940;5.282;2023-04-24T14:33:10;16.40;99.90
27667;DHT22;15074;50.940;5.282;2023-04-24T14:35:37;16.10;99.90
27667;DHT22;15074;50.940;5.282;2023-04-24T14:38:03;16.10;99.90
27667;DHT22;15074;50.940;5.282;2023-04-24T14:40:28;16.20;99.90
27667;DHT22;15074;50.940;5.282;2023-04-24T14:42:55;15.90;99.90
27667;DHT22;15074;50.940;5.282;2023-04-24T14:45:22;15.40;99.90
27667;DHT22;15074;50.940;5.282;2023-04-24T14:47:48;15.50;99.90
27667;DHT22;15074;50.940;5.282;2023-04-24T14:50:13;15.50;99.90
27667;DHT22;15074;50.940;5.282;2023-04-24T14:52:39;15.50;99.90
27667;DHT22;15074;50.940;5.282;2023-04-24T14:55:06;15.60;99.90
27667;DHT22;15074;50.940;5.282;2023-04-24T14:57:35;15.70;99.90
27667;DHT22;15074;50.940;5.282;2023-04-24T15:00:02;15.80;99.90
27667;DHT22;15074;50.940;5.282;2023-04-24T15:02:29;15.80;99.90
27667;DHT22;15074;50.940;5.282;2023-04-24T15:04:54;15.70;99.90
27667;DHT22;15074;50.940;5.282;2023-04-24T15:07:20;15.60;99.90
27667;DHT22;15074;50.940;5.282;2023-04-24T15:09:45;15.40;99.90
27667;DHT22;15074;50.940;5.282;2023-04-24T15:12:13;15.00;99.90
27667;DHT22;15074;50.940;5.282;2023-04-24T15:14:38;14.70;99.90
27667;DHT22;15074;50.940;5.282;2023-04-24T15:17:04;14.80;99.90
27667;DHT22;15074;50.940;5.282;2023-04-24T15:19:30;14.90;99.90
27667;DHT22;15074;50.940;5.282;2023-04-24T15:21:56;14.70;99.90
27667;DHT22;15074;50.940;5.282;2023-04-24T15:24:22;14.80;99.90
27667;DHT22;15074;50.940;5.282;2023-04-24T15:26:48;14.90;99.90
27667;DHT22;15074;50.940;5.282;2023-04-24T15:29:14;14.80;99.90
27667;DHT22;15074;50.940;5.282;2023-04-24T15:31:39;14.80;99.90
27667;DHT22;15074;50.940;5.282;2023-04-24T15:34:06;14.70;99.90
27667;DHT22;15074;50.940;5.282;2023-04-24T15:36:31;14.60;99.90
27667;DHT22;15074;50.940;5.282;2023-04-24T15:38:57;14.20;99.90
27667;DHT22;15074;50.940;5.282;2023-04-24T15:41:23;14.40;99.90
27667;DHT22;15074;50.940;5.282;2023-04-24T15:43:49;14.60;99.90
27667;DHT22;15074;50.940;5.282;2023-04-24T15:46:15;14.40;99.90
27667;DHT22;15074;50.940;5.282;2023-04-24T15:48:47;14.50;99.90
27667;DHT22;15074;50.940;5.282;2023-04-24T15:51:12;14.50;99.90
27667;DHT22;15074;50.940;5.282;2023-04-24T15:53:38;14.60;99.90
27667;DHT22;15074;50.940;5.282;2023-04-24T15:56:04;14.50;99.90
27667;DHT22;15074;50.940;5.282;2023-04-24T15:58:30;14.40;99.90
27667;DHT22;15074;50.940;5.282;2023-04-24T16:00:56;14.30;99.90
27667;DHT22;15074;50.940;5.282;2023-04-24T16:03:21;14.40;99.90
27667;DHT22;15074;50.940;5.282;2023-04-24T16:05:47;14.20;99.90
27667;DHT22;15074;50.940;5.282;2023-04-24T16:08:13;14.10;99.90
27667;DHT22;15074;50.940;5.282;2023-04-24T16:10:40;14.10;99.90
27667;DHT22;15074;50.940;5.282;2023-04-24T16:13:06;13.90;99.90
27667;DHT22;15074;50.940;5.282;2023-04-24T16:15:33;14.10;99.90